createdAt,value
2023-08-10T00:01:27.837Z,4.05
2023-08-10T00:03:56.393Z,4.38
2023-08-10T00:06:24.796Z,4.22
2023-08-10T00:08:54.547Z,4.03
2023-08-10T00:11:22.863Z,4.15
2023-08-10T00:13:51.159Z,4.03
2023-08-10T00:16:19.566Z,3.60
2023-08-10T00:18:47.906Z,4.00
2023-08-10T00:21:16.348Z,3.97
2023-08-10T00:23:44.688Z,4.03
2023-08-10T00:26:14.387Z,3.35
2023-08-10T00:28:42.725Z,3.53
2023-08-10T00:31:11.081Z,3.72
2023-08-10T00:33:39.959Z,3.83
2023-08-10T00:36:09.399Z,3.90
2023-08-10T00:38:39.551Z,3.80
2023-08-10T00:41:09.193Z,4.03
2023-08-10T00:43:39.093Z,3.92
2023-08-10T00:46:10.993Z,3.63
2023-08-10T00:48:39.634Z,3.03
2023-08-10T00:51:08.122Z,3.70
2023-08-10T00:53:37.664Z,3.83
2023-08-10T00:56:07.345Z,3.50
2023-08-10T00:58:36.607Z,3.08
2023-08-10T01:01:06.394Z,3.47
2023-08-10T01:03:34.858Z,3.38
2023-08-10T01:06:11.517Z,3.10
2023-08-10T01:08:47.715Z,3.35
2023-08-10T01:11:25.863Z,3.40
2023-08-10T01:14:04.992Z,3.88
2023-08-10T01:16:39.107Z,3.30
2023-08-10T01:19:12.676Z,3.00
2023-08-10T01:21:50.911Z,3.50
2023-08-10T01:24:28.158Z,2.90
2023-08-10T01:26:58.067Z,3.35
2023-08-10T01:29:26.708Z,3.63
2023-08-10T01:31:56.174Z,3.35
2023-08-10T01:34:24.810Z,2.83
2023-08-10T01:36:53.167Z,2.70
2023-08-10T01:39:21.562Z,3.20
2023-08-10T01:41:49.934Z,3.03
2023-08-10T01:44:19.648Z,3.15
2023-08-10T01:46:49.856Z,3.00
2023-08-10T01:49:21.714Z,3.20
2023-08-10T01:51:51.322Z,3.38
2023-08-10T01:54:21.084Z,3.10
2023-08-10T01:56:49.538Z,3.22
2023-08-10T01:59:20.992Z,3.22
2023-08-10T02:01:49.654Z,2.97
2023-08-10T02:04:18.364Z,3.22
2023-08-10T02:06:46.816Z,3.47
2023-08-10T02:09:15.111Z,3.17
2023-08-10T02:11:43.400Z,3.42
2023-08-10T02:14:11.800Z,3.50
2023-08-10T02:16:41.666Z,3.40
2023-08-10T02:19:10.043Z,3.53
2023-08-10T02:21:38.524Z,3.20
2023-08-10T02:24:07.306Z,3.40
2023-08-10T02:26:35.922Z,3.83
2023-08-10T02:29:04.413Z,3.25
2023-08-10T02:31:34.199Z,3.40
2023-08-10T02:34:04.921Z,3.40
2023-08-10T02:36:33.227Z,2.78
2023-08-10T02:39:01.906Z,3.22
2023-08-10T02:41:30.439Z,3.80
2023-08-10T02:43:58.856Z,3.50
2023-08-10T02:46:27.176Z,3.30
2023-08-10T02:48:56.345Z,3.10
2023-08-10T02:51:26.113Z,3.33
2023-08-10T02:53:54.548Z,3.53
2023-08-10T02:56:22.870Z,3.17
2023-08-10T02:58:51.224Z,3.97
2023-08-10T03:01:19.570Z,3.78
2023-08-10T03:03:47.923Z,3.33
2023-08-10T03:06:16.626Z,3.40
2023-08-10T03:08:46.357Z,3.30
2023-08-10T03:11:16.414Z,3.05
2023-08-10T03:13:44.710Z,3.08
2023-08-10T03:16:13.601Z,4.00
2023-08-10T03:18:42.027Z,3.45
2023-08-10T03:21:10.465Z,3.13
2023-08-10T03:23:38.793Z,3.10
2023-08-10T03:26:09.072Z,3.28
2023-08-10T03:28:37.498Z,3.63
2023-08-10T03:31:06.861Z,3.35
2023-08-10T03:33:37.181Z,3.67
2023-08-10T03:36:05.607Z,3.20
2023-08-10T03:38:34.112Z,4.05
2023-08-10T03:41:02.862Z,3.63
2023-08-10T03:43:32.656Z,3.85
2023-08-10T03:46:02.312Z,3.35
2023-08-10T03:48:31.995Z,3.47
2023-08-10T03:51:00.388Z,3.20
2023-08-10T03:53:28.850Z,3.67
2023-08-10T03:55:57.475Z,3.80
2023-08-10T03:58:26.064Z,3.72
2023-08-10T04:00:55.882Z,4.32
2023-08-10T04:03:24.723Z,4.65
2023-08-10T04:05:53.515Z,4.53
2023-08-10T04:08:21.890Z,4.85
2023-08-10T04:10:50.558Z,4.32
2023-08-10T04:13:19.858Z,4.57
2023-08-10T04:15:49.978Z,4.88
2023-08-10T04:18:19.943Z,4.35
2023-08-10T04:20:48.429Z,4.22
2023-08-10T04:23:16.794Z,4.38
2023-08-10T04:25:45.154Z,4.40
2023-08-10T04:28:13.491Z,4.65
2023-08-10T04:30:41.865Z,4.95
2023-08-10T04:33:10.854Z,4.35
2023-08-10T04:35:40.576Z,4.22
2023-08-10T04:38:09.057Z,4.30
2023-08-10T04:40:37.414Z,4.03
2023-08-10T04:43:06.118Z,4.43
2023-08-10T04:45:34.552Z,4.75
2023-08-10T04:48:03.015Z,4.40
2023-08-10T04:50:31.852Z,4.60
2023-08-10T04:53:01.661Z,4.35
2023-08-10T04:55:30.102Z,4.40
2023-08-10T04:57:58.398Z,4.05
2023-08-10T05:00:26.980Z,4.70
2023-08-10T05:02:55.508Z,4.35
2023-08-10T05:05:24.054Z,5.00
2023-08-10T05:07:52.467Z,4.90
2023-08-10T05:10:22.468Z,4.55
2023-08-10T05:12:50.815Z,5.07
2023-08-10T05:15:19.266Z,4.05
2023-08-10T05:17:47.610Z,4.90
2023-08-10T05:20:15.989Z,4.55
2023-08-10T05:22:45.253Z,4.40
2023-08-10T05:25:18.872Z,4.53
2023-08-10T05:27:49.134Z,4.40
2023-08-10T05:30:17.705Z,4.30
2023-08-10T05:32:46.325Z,4.47
2023-08-10T05:35:15.843Z,3.83
2023-08-10T05:37:44.411Z,4.50
2023-08-10T05:40:13.642Z,4.45
2023-08-10T05:42:43.592Z,4.05
2023-08-10T05:45:17.207Z,4.00
2023-08-10T05:47:47.336Z,4.25
2023-08-10T05:50:17.018Z,4.47
2023-08-10T05:52:46.486Z,4.10
2023-08-10T05:55:15.832Z,3.80
2023-08-10T05:57:44.648Z,3.42
2023-08-10T06:00:15.700Z,3.90
2023-08-10T06:02:44.419Z,4.03
2023-08-10T06:05:14.021Z,4.00
2023-08-10T06:07:42.439Z,3.53
2023-08-10T06:10:11.053Z,3.70
2023-08-10T06:12:39.403Z,3.55
2023-08-10T06:15:08.669Z,3.38
2023-08-10T06:17:38.548Z,4.22
2023-08-10T06:20:11.471Z,3.88
2023-08-10T06:22:40.841Z,3.08
2023-08-10T06:25:10.749Z,3.53
2023-08-10T06:27:39.099Z,3.17
2023-08-10T06:30:09.289Z,3.05
2023-08-10T06:32:40.064Z,3.22
2023-08-10T06:35:10.101Z,3.28
2023-08-10T06:37:38.842Z,3.10
2023-08-10T06:40:09.840Z,2.88
2023-08-10T06:42:39.397Z,3.40
2023-08-10T06:45:34.197Z,2.70
2023-08-10T06:48:04.059Z,2.70
2023-08-10T06:50:33.319Z,2.53
2023-08-10T06:53:01.784Z,2.92
2023-08-10T06:55:31.516Z,2.17
2023-08-10T06:58:00.857Z,2.70
2023-08-10T07:03:01.011Z,2.50
2023-08-10T07:05:30.951Z,2.30
2023-08-10T07:07:59.320Z,2.33
2023-08-10T07:10:27.629Z,2.45
2023-08-10T07:12:55.951Z,3.50
2023-08-10T07:15:24.271Z,2.65
2023-08-10T07:17:52.654Z,2.05
2023-08-10T07:20:21.297Z,2.40
2023-08-10T07:22:51.377Z,1.83
2023-08-10T07:25:21.845Z,2.00
2023-08-10T07:27:50.852Z,1.67
2023-08-10T07:30:19.276Z,2.20
2023-08-10T07:32:47.911Z,2.40
2023-08-10T07:35:16.787Z,2.45
2023-08-10T07:37:45.871Z,1.80
2023-08-10T07:40:15.577Z,2.03
2023-08-10T07:42:44.007Z,1.70
2023-08-10T07:45:12.590Z,2.22
2023-08-10T07:47:41.075Z,1.80
2023-08-10T07:50:10.227Z,1.92
2023-08-10T07:52:38.692Z,1.77
2023-08-10T07:55:07.851Z,2.15
2023-08-10T07:57:37.573Z,1.92
2023-08-10T08:00:07.584Z,1.40
2023-08-10T08:02:41.999Z,1.42
2023-08-10T08:05:10.791Z,1.77
2023-08-10T08:07:39.144Z,1.55
2023-08-10T08:10:08.095Z,1.85
2023-08-10T08:12:37.945Z,2.05
2023-08-10T08:15:06.899Z,1.67
2023-08-10T08:18:14.082Z,1.63
2023-08-10T08:20:42.453Z,1.42
2023-08-10T08:23:10.929Z,1.92
2023-08-10T08:25:40.871Z,1.90
2023-08-10T08:28:10.803Z,1.48
2023-08-10T08:30:40.462Z,1.58
2023-08-10T08:33:10.855Z,1.77
2023-08-10T08:35:39.368Z,1.75
2023-08-10T08:38:07.857Z,1.80
2023-08-10T08:40:37.081Z,1.65
2023-08-10T08:43:06.533Z,1.80
2023-08-10T08:45:36.750Z,1.63
2023-08-10T08:48:08.721Z,1.40
2023-08-10T08:50:38.216Z,1.95
2023-08-10T08:53:10.048Z,2.17
2023-08-10T08:55:39.443Z,1.75
2023-08-10T08:58:08.619Z,1.75
2023-08-10T09:00:38.540Z,1.80
2023-08-10T09:03:08.372Z,1.60
2023-08-10T09:05:36.792Z,1.65
2023-08-10T09:08:06.058Z,1.50
2023-08-10T09:10:34.977Z,2.10
2023-08-10T09:13:12.421Z,1.75
2023-08-10T09:15:42.310Z,1.92
2023-08-10T09:18:10.868Z,1.75
2023-08-10T09:20:39.419Z,1.63
2023-08-10T09:23:07.711Z,1.52
2023-08-10T09:25:41.204Z,1.38
2023-08-10T09:28:12.505Z,1.52
2023-08-10T09:30:43.104Z,1.85
2023-08-10T09:33:11.603Z,1.90
2023-08-10T09:35:40.160Z,1.60
2023-08-10T09:38:08.528Z,1.50
2023-08-10T09:40:36.840Z,1.40
2023-08-10T09:43:12.074Z,1.80
2023-08-10T09:45:45.405Z,1.60
2023-08-10T09:48:14.103Z,1.73
2023-08-10T09:50:47.696Z,1.48
2023-08-10T09:53:16.435Z,1.45
2023-08-10T09:55:44.946Z,1.50
2023-08-10T09:58:13.566Z,1.40
2023-08-10T10:00:44.337Z,1.15
2023-08-10T10:03:12.678Z,1.73
2023-08-10T10:05:41.266Z,1.38
2023-08-10T10:08:10.052Z,1.50
2023-08-10T10:10:39.270Z,1.42
2023-08-10T10:13:12.247Z,1.70
2023-08-10T10:15:42.332Z,1.67
2023-08-10T10:18:13.102Z,1.50
2023-08-10T10:20:42.885Z,1.55
2023-08-10T10:23:18.588Z,1.50
2023-08-10T10:26:02.988Z,1.30
2023-08-10T10:28:34.248Z,1.60
2023-08-10T10:31:11.839Z,1.30
2023-08-10T10:33:56.751Z,1.75
2023-08-10T10:36:25.449Z,1.77
2023-08-10T10:38:57.090Z,1.42
2023-08-10T10:41:33.223Z,1.50
2023-08-10T10:44:03.235Z,1.60
2023-08-10T10:46:39.553Z,1.92
2023-08-10T10:49:21.091Z,1.85
2023-08-10T10:51:59.394Z,1.80
2023-08-10T10:54:29.347Z,1.60
2023-08-10T10:56:57.969Z,1.58
2023-08-10T10:59:26.316Z,1.73
2023-08-10T11:01:55.656Z,2.10
2023-08-10T11:04:25.608Z,1.85
2023-08-10T11:07:00.195Z,2.00
2023-08-10T11:09:28.777Z,1.90
2023-08-10T11:11:57.138Z,1.85
2023-08-10T11:14:29.522Z,1.70
2023-08-10T11:16:59.258Z,1.70
2023-08-10T11:19:31.126Z,1.75
2023-08-10T11:21:59.540Z,1.48
2023-08-10T11:24:30.905Z,1.50
2023-08-10T11:26:59.732Z,2.03
2023-08-10T11:29:30.010Z,1.77
2023-08-10T11:32:00.273Z,1.90
2023-08-10T11:34:30.924Z,1.80
2023-08-10T11:37:00.209Z,1.77
2023-08-10T11:39:28.610Z,1.85
2023-08-10T11:41:57.753Z,1.63
2023-08-10T11:44:27.428Z,1.77
2023-08-10T11:46:59.535Z,1.35
2023-08-10T11:49:35.229Z,1.80
2023-08-10T11:52:05.213Z,2.30
2023-08-10T11:54:36.416Z,1.90
2023-08-10T11:57:13.122Z,1.77
2023-08-10T11:59:42.180Z,1.88
2023-08-10T12:02:16.663Z,2.00
2023-08-10T12:04:46.641Z,2.00
2023-08-10T12:07:25.085Z,1.90
2023-08-10T12:09:53.776Z,1.90
2023-08-10T12:12:22.119Z,1.50
2023-08-10T12:14:54.623Z,1.83
2023-08-10T12:17:23.402Z,1.90
2023-08-10T12:19:53.296Z,1.80
2023-08-10T12:22:22.477Z,2.08
2023-08-10T12:24:51.245Z,1.90
2023-08-10T12:27:19.677Z,1.73
2023-08-10T12:29:48.041Z,2.00
2023-08-10T12:32:16.326Z,1.80
2023-08-10T12:34:44.720Z,1.45
2023-08-10T12:37:14.407Z,2.25
2023-08-10T12:39:42.799Z,1.20
2023-08-10T12:42:11.160Z,1.70
2023-08-10T12:44:39.494Z,1.70
2023-08-10T12:47:08.192Z,1.95
2023-08-10T12:49:36.769Z,1.85
2023-08-10T12:52:05.619Z,2.05
2023-08-10T12:54:35.837Z,1.40
2023-08-10T12:57:04.336Z,1.60
2023-08-10T12:59:32.720Z,1.42
2023-08-10T13:02:01.048Z,1.55
2023-08-10T13:04:29.484Z,1.60
2023-08-10T13:06:57.817Z,1.58
2023-08-10T13:09:26.181Z,1.45
2023-08-10T13:11:56.154Z,1.92
2023-08-10T13:14:24.551Z,1.75
2023-08-10T13:16:53.054Z,1.92
2023-08-10T13:19:21.394Z,1.42
2023-08-10T13:21:50.825Z,1.58
2023-08-10T13:24:19.309Z,1.40
2023-08-10T13:26:47.856Z,1.60
2023-08-10T13:29:17.540Z,1.42
2023-08-10T13:31:46.006Z,1.40
2023-08-10T13:34:14.479Z,1.33
2023-08-10T13:36:43.100Z,1.60
2023-08-10T13:39:12.301Z,1.58
2023-08-10T13:41:40.620Z,1.50
2023-08-10T13:44:10.309Z,1.40
2023-08-10T13:46:40.109Z,1.17
2023-08-10T13:49:09.334Z,2.05
2023-08-10T13:51:38.608Z,1.38
2023-08-10T13:54:07.437Z,1.45
2023-08-10T13:57:01.353Z,1.27
2023-08-10T13:59:31.078Z,1.50
2023-08-10T14:02:00.888Z,1.38
2023-08-10T14:04:29.370Z,1.60
2023-08-10T14:06:57.707Z,1.35
2023-08-10T14:09:26.735Z,1.50
2023-08-10T14:11:55.319Z,1.80
2023-08-10T14:14:23.651Z,1.73
2023-08-10T14:16:52.144Z,1.50
2023-08-10T14:19:23.241Z,1.40
2023-08-10T14:21:52.196Z,1.60
2023-08-10T14:24:20.707Z,1.60
2023-08-10T14:26:49.093Z,1.52
2023-08-10T14:29:17.402Z,1.67
2023-08-10T14:31:45.712Z,1.52
2023-08-10T14:34:14.683Z,1.55
2023-08-10T14:36:44.436Z,1.80
2023-08-10T14:39:13.094Z,1.48
2023-08-10T14:41:41.575Z,1.90
2023-08-10T14:44:10.506Z,2.05
2023-08-10T14:46:39.023Z,1.88
2023-08-10T14:49:07.397Z,1.60
2023-08-10T14:51:36.309Z,1.70
2023-08-10T14:54:06.887Z,1.77
2023-08-10T14:56:36.190Z,1.83
2023-08-10T14:59:06.248Z,2.03
2023-08-10T15:01:34.632Z,2.10
2023-08-10T15:04:06.856Z,1.85
2023-08-10T15:06:41.610Z,1.77
2023-08-10T15:09:11.857Z,1.70
2023-08-10T15:11:44.002Z,1.58
2023-08-10T15:14:12.510Z,1.52
2023-08-10T15:16:40.986Z,1.77
2023-08-10T15:19:09.490Z,1.73
2023-08-10T15:21:37.823Z,1.65
2023-08-10T15:24:06.761Z,1.90
2023-08-10T15:26:36.757Z,1.90
2023-08-10T15:29:05.657Z,1.73
2023-08-10T15:31:33.968Z,1.70
2023-08-10T15:34:02.241Z,1.73
2023-08-10T15:36:30.584Z,2.00
2023-08-10T15:38:58.885Z,1.90
2023-08-10T15:41:27.267Z,1.70
2023-08-10T15:43:56.910Z,1.80
2023-08-10T15:46:25.297Z,1.58
2023-08-10T15:48:53.872Z,1.90
2023-08-10T15:51:22.210Z,1.80
2023-08-10T15:53:50.578Z,2.40
2023-08-10T15:56:18.863Z,1.80
2023-08-10T15:58:47.363Z,1.90
2023-08-10T16:01:17.135Z,1.90
2023-08-10T16:03:45.726Z,2.90
2023-08-10T16:06:14.536Z,2.60
2023-08-10T16:08:42.872Z,3.53
2023-08-10T16:11:11.280Z,3.60
2023-08-10T16:13:39.862Z,3.42
2023-08-10T16:16:08.587Z,2.80
2023-08-10T16:18:38.500Z,2.50
2023-08-10T16:21:06.916Z,2.20
2023-08-10T16:23:36.685Z,2.60
2023-08-10T16:26:05.107Z,2.63
2023-08-10T16:28:34.371Z,2.33
2023-08-10T16:31:02.916Z,2.20
2023-08-10T16:33:31.256Z,2.45
2023-08-10T16:36:01.095Z,2.80
2023-08-10T16:38:29.485Z,4.50
2023-08-10T16:40:57.814Z,4.32
2023-08-10T16:43:26.131Z,3.30
2023-08-10T16:45:54.544Z,2.80
2023-08-10T16:48:22.988Z,3.55
2023-08-10T16:50:52.494Z,2.97
2023-08-10T16:53:22.302Z,3.10
2023-08-10T16:55:50.752Z,2.85
2023-08-10T16:58:19.103Z,2.63
2023-08-10T17:00:47.828Z,2.47
2023-08-10T17:03:16.287Z,2.72
2023-08-10T17:05:44.779Z,2.97
2023-08-10T17:08:13.278Z,3.20
2023-08-10T17:10:43.359Z,2.75
2023-08-10T17:13:11.830Z,2.85
2023-08-10T17:15:40.198Z,3.20
2023-08-10T17:18:08.612Z,2.80
2023-08-10T17:20:36.995Z,3.50
2023-08-10T17:23:05.690Z,2.90
2023-08-10T17:25:34.641Z,3.15
2023-08-10T17:28:04.465Z,2.80
2023-08-10T17:30:32.902Z,2.95
2023-08-10T17:33:01.526Z,3.53
2023-08-10T17:35:29.899Z,3.42
2023-08-10T17:37:58.296Z,3.60
2023-08-10T17:40:27.450Z,3.10
2023-08-10T17:42:55.937Z,3.03
2023-08-10T17:45:25.641Z,3.40
2023-08-10T17:47:54.017Z,3.10
2023-08-10T17:50:22.594Z,3.85
2023-08-10T17:52:51.040Z,3.60
2023-08-10T17:55:20.512Z,3.60
2023-08-10T17:57:50.409Z,3.58
2023-08-10T18:00:20.965Z,3.45
2023-08-10T18:02:58.802Z,3.33
2023-08-10T18:05:27.457Z,4.47
2023-08-10T18:07:55.804Z,3.25
2023-08-10T18:10:24.219Z,3.60
2023-08-10T18:12:52.580Z,3.15
2023-08-10T18:15:21.472Z,3.08
2023-08-10T18:17:49.965Z,3.20
2023-08-10T18:20:19.760Z,3.45
2023-08-10T18:22:48.175Z,3.30
2023-08-10T18:25:17.030Z,3.13
2023-08-10T18:27:45.502Z,3.08
2023-08-10T18:30:15.783Z,2.97
2023-08-10T18:32:44.312Z,3.28
2023-08-10T18:35:12.895Z,3.20
2023-08-10T18:37:42.681Z,3.58
2023-08-10T18:40:12.668Z,3.08
2023-08-10T18:42:41.380Z,3.28
2023-08-10T18:45:10.260Z,3.42
2023-08-10T18:47:43.784Z,3.28
2023-08-10T18:50:13.821Z,3.22
2023-08-10T18:52:43.569Z,4.20
2023-08-10T18:55:12.107Z,4.70
2023-08-10T18:57:40.402Z,4.70
2023-08-10T19:00:11.629Z,3.50
2023-08-10T19:02:39.973Z,3.45
2023-08-10T19:05:10.176Z,3.22
2023-08-10T19:07:39.643Z,3.70
2023-08-10T19:10:11.850Z,3.42
2023-08-10T19:12:40.677Z,3.00
2023-08-10T19:15:09.609Z,3.17
2023-08-10T19:17:40.288Z,3.10
2023-08-10T19:20:10.180Z,2.85
2023-08-10T19:22:38.342Z,3.42
2023-08-10T19:25:06.834Z,2.97
2023-08-10T19:27:36.266Z,3.13
2023-08-10T19:30:07.094Z,3.40
2023-08-10T19:32:35.357Z,3.08
2023-08-10T19:35:04.605Z,2.92
2023-08-10T19:37:32.689Z,3.25
2023-08-10T19:40:00.895Z,2.85
2023-08-10T19:42:29.045Z,3.10
2023-08-10T19:44:59.676Z,2.90
2023-08-10T19:47:27.837Z,2.95
2023-08-10T19:49:56.039Z,3.10
2023-08-10T19:52:24.122Z,2.97
2023-08-10T19:54:52.205Z,3.00
2023-08-10T19:57:20.215Z,3.13
2023-08-10T19:59:48.404Z,2.92
2023-08-10T20:02:17.922Z,2.47
2023-08-10T20:04:46.255Z,3.22
2023-08-10T20:07:14.400Z,3.13
2023-08-10T20:09:42.545Z,2.45
2023-08-10T20:12:10.900Z,2.95
2023-08-10T20:14:39.047Z,3.10
2023-08-10T20:17:07.232Z,3.17
2023-08-10T20:19:36.834Z,2.42
2023-08-10T20:22:05.298Z,2.67
2023-08-10T20:24:35.236Z,3.08
2023-08-10T20:27:09.233Z,3.17
2023-08-10T20:29:38.300Z,2.90
2023-08-10T20:32:07.661Z,3.22
2023-08-10T20:34:37.465Z,3.17
2023-08-10T20:37:06.667Z,3.05
2023-08-10T20:39:34.805Z,3.60
2023-08-10T20:42:02.892Z,2.72
2023-08-10T20:44:31.232Z,3.25
2023-08-10T20:46:59.291Z,3.13
2023-08-10T20:49:28.413Z,3.30
2023-08-10T20:51:57.895Z,3.25
2023-08-10T20:54:26.003Z,3.45
2023-08-10T20:56:54.504Z,3.22
2023-08-10T20:59:22.719Z,3.40
2023-08-10T21:01:51.038Z,3.05
2023-08-10T21:04:19.319Z,2.97
2023-08-10T21:06:47.580Z,2.97
2023-08-10T21:09:17.397Z,3.15
2023-08-10T21:11:45.521Z,2.70
2023-08-10T21:14:13.565Z,3.47
2023-08-10T21:16:41.687Z,3.50
2023-08-10T21:19:09.805Z,3.30
2023-08-10T21:21:37.922Z,3.13
2023-08-10T21:24:07.849Z,3.45
2023-08-10T21:26:37.356Z,3.50
2023-08-10T21:29:05.823Z,3.40
2023-08-10T21:31:34.081Z,3.42
2023-08-10T21:34:02.226Z,3.38
2023-08-10T21:36:30.291Z,3.30
2023-08-10T21:38:58.604Z,3.58
2023-08-10T21:41:26.896Z,3.50
2023-08-10T21:43:56.719Z,3.28
2023-08-10T21:46:24.789Z,3.55
2023-08-10T21:48:52.922Z,3.70
2023-08-10T21:51:20.994Z,3.85
2023-08-10T21:53:49.099Z,3.50
2023-08-10T21:56:17.224Z,4.07
2023-08-10T21:58:46.281Z,3.65
2023-08-10T22:01:15.984Z,3.70
2023-08-10T22:03:44.437Z,3.58
2023-08-10T22:06:12.741Z,3.60
2023-08-10T22:08:40.918Z,3.97
2023-08-10T22:11:09.008Z,3.90
2023-08-10T22:13:37.147Z,4.00
2023-08-10T22:16:05.584Z,4.80
2023-08-10T22:18:37.137Z,3.72
2023-08-10T22:21:05.670Z,3.67
2023-08-10T22:23:33.857Z,4.15
2023-08-10T22:26:02.291Z,4.10
2023-08-10T22:28:30.391Z,4.00
2023-08-10T22:30:58.492Z,4.07
2023-08-10T22:33:26.657Z,4.15
2023-08-10T22:35:56.249Z,4.30
2023-08-10T22:38:26.437Z,3.80
2023-08-10T22:40:56.186Z,3.92
2023-08-10T22:43:24.527Z,4.57
2023-08-10T22:45:52.705Z,4.20
2023-08-10T22:48:21.327Z,4.22
2023-08-10T22:50:49.431Z,4.10
2023-08-10T22:53:18.870Z,4.05
2023-08-10T22:55:48.731Z,4.68
2023-08-10T22:58:16.787Z,4.20
2023-08-10T23:00:45.043Z,4.57
2023-08-10T23:03:13.142Z,4.47
2023-08-10T23:05:41.296Z,4.50
2023-08-10T23:08:09.430Z,4.25
2023-08-10T23:10:38.932Z,4.60
2023-08-10T23:13:07.969Z,4.43
2023-08-10T23:15:36.312Z,4.07
2023-08-10T23:18:04.571Z,4.45
2023-08-10T23:20:32.714Z,4.20
2023-08-10T23:23:00.892Z,4.85
2023-08-10T23:25:29.020Z,4.97
2023-08-10T23:27:58.438Z,4.20
2023-08-10T23:30:26.519Z,4.25
2023-08-10T23:32:56.243Z,4.55
2023-08-10T23:35:24.385Z,4.20
2023-08-10T23:37:52.515Z,4.22
2023-08-10T23:40:21.478Z,4.72
2023-08-10T23:42:49.705Z,4.75
2023-08-10T23:45:19.325Z,4.60
2023-08-10T23:47:47.487Z,4.35
2023-08-10T23:50:15.652Z,5.00
2023-08-10T23:52:44.320Z,5.25
2023-08-10T23:55:13.107Z,5.22
2023-08-10T23:57:41.971Z,4.95
